createdAt,value
2018-02-16T00:02:07.310Z,95513.13
2018-02-16T00:04:34.722Z,95522.45
2018-02-16T00:07:02.098Z,95522.23
2018-02-16T00:09:29.479Z,95482.40
2018-02-16T00:11:56.871Z,95518.19
2018-02-16T00:14:24.240Z,95511.16
2018-02-16T00:16:51.634Z,95540.34
2018-02-16T00:19:19.091Z,95489.89
2018-02-16T00:21:46.579Z,95500.70
2018-02-16T00:24:14.021Z,95498.09
2018-02-16T00:26:41.430Z,95537.11
2018-02-16T00:29:08.831Z,95477.19
2018-02-16T00:31:36.245Z,95526.48
2018-02-16T00:34:03.619Z,95510.37
2018-02-16T00:36:31.024Z,95522.47
2018-02-16T00:38:58.595Z,95549.19
2018-02-16T00:41:25.964Z,95520.41
2018-02-16T00:43:53.324Z,95507.10
2018-02-16T00:46:20.820Z,95522.30
2018-02-16T00:48:48.269Z,95506.77
2018-02-16T00:51:15.779Z,95506.16
2018-02-16T00:53:43.162Z,95538.41
2018-02-16T00:56:10.844Z,95524.16
2018-02-16T00:58:38.237Z,95542.32
2018-02-16T01:01:05.640Z,95542.72
2018-02-16T01:03:33.211Z,95513.89
2018-02-16T01:06:00.569Z,95545.98
2018-02-16T01:08:27.932Z,95500.99
2018-02-16T01:10:55.315Z,95545.00
2018-02-16T01:13:22.883Z,95542.14
2018-02-16T01:15:50.295Z,95528.69
2018-02-16T01:18:17.664Z,95522.02
2018-02-16T01:20:45.250Z,95521.88
2018-02-16T01:23:12.609Z,95490.20
2018-02-16T01:25:40.019Z,95536.69
2018-02-16T01:28:07.461Z,95494.17
2018-02-16T01:30:34.820Z,95539.84
2018-02-16T01:33:02.224Z,95535.45
2018-02-16T01:35:29.616Z,95540.40
2018-02-16T01:37:56.986Z,95505.01
2018-02-16T01:40:24.406Z,95537.39
2018-02-16T01:42:52.012Z,95523.14
2018-02-16T01:45:19.547Z,95540.19
2018-02-16T01:47:46.910Z,95518.73
2018-02-16T01:50:14.295Z,95520.78
2018-02-16T01:52:41.765Z,95545.09
2018-02-16T01:55:09.190Z,95498.64
2018-02-16T01:57:36.685Z,95551.68
2018-02-16T02:00:04.156Z,95523.69
2018-02-16T02:02:34.374Z,95552.27
2018-02-16T02:05:01.737Z,95527.55
2018-02-16T02:07:29.104Z,95497.70
2018-02-16T02:09:56.474Z,95552.09
2018-02-16T02:12:23.839Z,95537.84
2018-02-16T02:14:51.204Z,95523.18
2018-02-16T02:17:18.862Z,95485.75
2018-02-16T02:19:46.303Z,95522.27
2018-02-16T02:22:13.659Z,95531.39
2018-02-16T02:24:41.008Z,95491.23
2018-02-16T02:27:08.457Z,95530.88
2018-02-16T02:29:35.839Z,95529.59
2018-02-16T02:32:03.202Z,95457.50
2018-02-16T02:34:30.612Z,95541.13
2018-02-16T02:36:57.952Z,95501.44
2018-02-16T02:39:25.540Z,95525.89
2018-02-16T02:41:53.029Z,95541.04
2018-02-16T02:44:20.423Z,95513.73
2018-02-16T02:46:47.796Z,95545.59
2018-02-16T02:49:15.164Z,95529.13
2018-02-16T02:51:42.569Z,95538.42
2018-02-16T02:54:10.184Z,95507.49
2018-02-16T02:56:37.709Z,95550.98
2018-02-16T02:59:05.140Z,95536.02
2018-02-16T03:01:32.495Z,95553.62
2018-02-16T03:03:59.860Z,95489.92
2018-02-16T03:06:27.215Z,95554.58
2018-02-16T03:08:54.726Z,95520.05
2018-02-16T03:11:22.118Z,95548.16
2018-02-16T03:13:49.687Z,95567.98
2018-02-16T03:16:17.347Z,95525.34
2018-02-16T03:18:44.828Z,95573.30
2018-02-16T03:21:12.258Z,95582.38
2018-02-16T03:23:39.687Z,95579.21
2018-02-16T03:26:07.048Z,95561.88
2018-02-16T03:28:34.467Z,95583.36
2018-02-16T03:31:01.870Z,95584.39
2018-02-16T03:33:29.419Z,95581.22
2018-02-16T03:35:56.782Z,95584.47
2018-02-16T03:38:24.243Z,95590.80
2018-02-16T03:40:51.678Z,95574.50
2018-02-16T03:43:19.039Z,95600.42
2018-02-16T03:45:46.602Z,95550.19
2018-02-16T03:48:14.063Z,95588.30
2018-02-16T03:50:41.479Z,95596.68
2018-02-16T03:53:08.906Z,95584.33
2018-02-16T03:55:36.318Z,95571.98
2018-02-16T03:58:03.731Z,95571.77
2018-02-16T04:00:31.319Z,95517.38
2018-02-16T04:02:58.776Z,95578.25
2018-02-16T04:05:26.151Z,95595.50
2018-02-16T04:07:53.520Z,95582.44
2018-02-16T04:10:20.921Z,95561.19
2018-02-16T04:12:48.284Z,95563.62
2018-02-16T04:15:15.636Z,95564.13
2018-02-16T04:17:43.002Z,95563.39
2018-02-16T04:20:10.422Z,95568.52
2018-02-16T04:22:37.774Z,95540.17
2018-02-16T04:25:05.214Z,95561.91
2018-02-16T04:27:32.586Z,95594.14
2018-02-16T04:30:00.175Z,95490.75
2018-02-16T04:32:27.535Z,95567.41
2018-02-16T04:34:54.922Z,95583.35
2018-02-16T04:37:22.282Z,95585.61
2018-02-16T04:39:49.746Z,95600.77
2018-02-16T04:42:17.114Z,95582.00
2018-02-16T04:44:44.678Z,95597.92
2018-02-16T04:47:12.089Z,95597.00
2018-02-16T04:49:39.486Z,95587.13
2018-02-16T04:52:06.902Z,95561.48
2018-02-16T04:54:34.344Z,95620.65
2018-02-16T04:57:01.706Z,95628.63
2018-02-16T04:59:29.097Z,95608.02
2018-02-16T05:01:56.691Z,95624.67
2018-02-16T05:06:57.296Z,95425.06
2018-02-16T05:09:26.127Z,95601.73
2018-02-16T05:11:53.538Z,95619.01
2018-02-16T05:14:20.882Z,95632.06
2018-02-16T05:16:48.312Z,95633.06
2018-02-16T05:19:15.684Z,95621.27
2018-02-16T05:21:43.186Z,95638.73
2018-02-16T05:24:10.603Z,95597.20
2018-02-16T05:26:38.233Z,95629.80
2018-02-16T05:29:05.674Z,95644.08
2018-02-16T05:31:33.039Z,95598.92
2018-02-16T05:34:00.557Z,95631.52
2018-02-16T05:36:28.497Z,95656.80
2018-02-16T05:38:55.860Z,95647.86
2018-02-16T05:41:23.238Z,95616.77
2018-02-16T05:43:50.622Z,95658.11
2018-02-16T05:46:18.302Z,95644.47
2018-02-16T05:48:45.751Z,95659.44
2018-02-16T05:51:13.113Z,95655.63
2018-02-16T05:53:40.558Z,95566.33
2018-02-16T05:56:07.996Z,95543.80
2018-02-16T05:58:35.367Z,95581.52
2018-02-16T06:01:02.783Z,95625.35
2018-02-16T06:03:30.192Z,95668.40
2018-02-16T06:05:57.584Z,95655.15
2018-02-16T06:08:26.609Z,95650.20
2018-02-16T06:10:53.981Z,95635.81
2018-02-16T06:13:21.399Z,95683.98
2018-02-16T06:15:49.054Z,95650.22
2018-02-16T06:18:16.462Z,95639.61
2018-02-16T06:20:43.837Z,95675.00
2018-02-16T06:23:11.302Z,95617.80
2018-02-16T06:25:38.787Z,95680.53
2018-02-16T06:28:06.600Z,95608.16
2018-02-16T06:30:34.053Z,95651.95
2018-02-16T06:33:01.556Z,95690.20
2018-02-16T06:35:29.054Z,95705.00
2018-02-16T06:37:56.484Z,95695.88
2018-02-16T06:40:23.857Z,95605.06
2018-02-16T06:42:51.293Z,95692.63
2018-02-16T06:45:18.724Z,95684.14
2018-02-16T06:47:46.916Z,95700.86
2018-02-16T06:50:14.599Z,95657.62
2018-02-16T06:52:42.012Z,95686.06
2018-02-16T06:55:09.626Z,95672.98
2018-02-16T06:57:37.151Z,95709.78
2018-02-16T07:00:04.754Z,95645.34
2018-02-16T07:02:32.185Z,95699.59
2018-02-16T07:04:59.752Z,95681.34
2018-02-16T07:07:27.289Z,95694.48
2018-02-16T07:09:54.699Z,95681.17
2018-02-16T07:12:22.375Z,95683.44
2018-02-16T07:14:51.669Z,95656.53
2018-02-16T07:17:19.372Z,95686.34
2018-02-16T07:19:46.840Z,95604.45
2018-02-16T07:22:14.624Z,95678.18
2018-02-16T07:24:42.289Z,95601.80
2018-02-16T07:27:09.680Z,95671.94
2018-02-16T07:29:45.223Z,95638.61
2018-02-16T07:32:13.070Z,95632.67
2018-02-16T07:34:40.511Z,95639.89
2018-02-16T07:37:07.909Z,95656.20
2018-02-16T07:39:35.339Z,95684.80
2018-02-16T07:42:02.899Z,95657.70
2018-02-16T07:44:30.532Z,95688.40
2018-02-16T07:46:59.266Z,95688.98
2018-02-16T07:49:26.909Z,95675.69
2018-02-16T07:51:54.492Z,95634.40
2018-02-16T07:54:21.947Z,95636.07
2018-02-16T07:56:53.033Z,95653.33
2018-02-16T07:59:21.092Z,95606.94
2018-02-16T08:01:48.840Z,95635.34
2018-02-16T08:04:21.706Z,95639.09
2018-02-16T08:06:52.076Z,95640.42
2018-02-16T08:09:20.063Z,95584.55
2018-02-16T08:11:47.593Z,95666.13
2018-02-16T08:14:15.329Z,95617.66
2018-02-16T08:16:42.727Z,95565.25
2018-02-16T08:19:10.211Z,95508.64
2018-02-16T08:21:37.692Z,95634.50
2018-02-16T08:24:05.141Z,95647.04
2018-02-16T08:26:32.558Z,95691.12
2018-02-16T08:29:00.024Z,95622.94
2018-02-16T08:31:27.424Z,95656.51
2018-02-16T08:33:54.819Z,95689.90
2018-02-16T08:36:22.426Z,95598.50
2018-02-16T08:39:02.655Z,95571.40
2018-02-16T08:41:30.128Z,95628.20
2018-02-16T08:43:57.666Z,95646.44
2018-02-16T08:46:26.414Z,95615.45
2018-02-16T08:48:54.232Z,95629.41
2018-02-16T08:51:21.945Z,95620.77
2018-02-16T08:53:49.646Z,95617.12
2018-02-16T09:01:42.554Z,95593.46
2018-02-16T09:04:10.544Z,95549.73
2018-02-16T09:06:39.582Z,95589.39
2018-02-16T09:09:07.189Z,95670.95
2018-02-16T09:11:38.154Z,95558.77
2018-02-16T09:14:06.755Z,95634.95
2018-02-16T09:16:34.427Z,95581.59
2018-02-16T09:19:01.931Z,95638.39
2018-02-16T09:21:29.423Z,95547.20
2018-02-16T09:23:56.846Z,95626.08
2018-02-16T09:26:24.784Z,95626.47
2018-02-16T09:28:52.211Z,95618.99
2018-02-16T09:31:19.626Z,95584.85
2018-02-16T09:33:47.215Z,95575.94
2018-02-16T09:36:14.707Z,95576.15
2018-02-16T09:38:42.160Z,95625.13
2018-02-16T09:41:09.597Z,95602.56
2018-02-16T09:43:37.035Z,95625.31
2018-02-16T09:46:04.430Z,95597.63
2018-02-16T09:48:31.814Z,95543.61
2018-02-16T09:50:59.275Z,95643.36
2018-02-16T09:53:26.736Z,95558.16
2018-02-16T09:55:54.184Z,95561.16
2018-02-16T09:58:21.653Z,95617.67
2018-02-16T10:00:49.172Z,95602.55
2018-02-16T10:03:16.642Z,95624.55
2018-02-16T10:05:44.034Z,95622.27
2018-02-16T10:08:11.402Z,95669.41
2018-02-16T10:10:38.782Z,95651.63
2018-02-16T10:13:06.223Z,95655.77
2018-02-16T10:15:33.655Z,95652.94
2018-02-16T10:18:01.038Z,95659.03
2018-02-16T10:20:28.402Z,95591.84
2018-02-16T10:22:55.834Z,95586.35
2018-02-16T10:25:23.292Z,95672.45
2018-02-16T10:27:50.677Z,95677.10
2018-02-16T10:30:18.185Z,95642.63
2018-02-16T10:32:45.603Z,95675.81
2018-02-16T10:35:13.188Z,95634.16
2018-02-16T10:37:40.567Z,95540.56
2018-02-16T10:40:07.983Z,95613.67
2018-02-16T10:42:35.413Z,95662.74
2018-02-16T10:45:02.917Z,95590.11
2018-02-16T10:47:30.586Z,95589.00
2018-02-16T10:49:58.173Z,95673.80
2018-02-16T10:52:25.589Z,95590.97
2018-02-16T10:54:52.995Z,95587.14
2018-02-16T10:57:20.381Z,95546.48
2018-02-16T10:59:47.850Z,95579.48
2018-02-16T11:02:15.291Z,95646.38
2018-02-16T11:04:42.733Z,95644.04
2018-02-16T11:07:10.147Z,95578.48
2018-02-16T11:09:37.598Z,95613.03
2018-02-16T11:12:05.051Z,95587.28
2018-02-16T11:14:32.463Z,95568.34
2018-02-16T11:16:59.905Z,95529.16
2018-02-16T11:19:27.360Z,95594.63
2018-02-16T11:21:54.734Z,95596.33
2018-02-16T11:24:22.156Z,95573.59
2018-02-16T11:26:49.575Z,95531.11
2018-02-16T11:29:17.047Z,95545.47
2018-02-16T11:31:44.794Z,95561.14
2018-02-16T11:34:13.370Z,95537.84
2018-02-16T11:36:40.879Z,95536.41
2018-02-16T11:39:09.969Z,95596.44
2018-02-16T11:41:37.531Z,95567.19
2018-02-16T11:44:05.576Z,95565.27
2018-02-16T11:46:33.065Z,95563.67
2018-02-16T11:49:00.580Z,95566.31
2018-02-16T11:51:28.144Z,95567.09
2018-02-16T11:53:55.738Z,95571.08
2018-02-16T11:56:23.361Z,95598.35
2018-02-16T11:58:51.729Z,95608.47
2018-02-16T12:01:19.675Z,95563.87
2018-02-16T12:03:47.158Z,95595.93
2018-02-16T12:06:16.116Z,95552.47
2018-02-16T12:08:43.577Z,95575.83
2018-02-16T12:11:11.092Z,95575.92
2018-02-16T12:18:48.384Z,95545.20
2018-02-16T12:21:16.237Z,95549.39
2018-02-16T12:23:43.795Z,95512.45
2018-02-16T12:26:11.378Z,95522.30
2018-02-16T12:28:39.002Z,95517.95
2018-02-16T12:31:06.440Z,95557.89
2018-02-16T12:33:33.924Z,95584.02
2018-02-16T12:36:02.256Z,95513.09
2018-02-16T12:38:29.914Z,95540.47
2018-02-16T12:40:57.701Z,95555.64
2018-02-16T12:43:25.387Z,95586.91
2018-02-16T12:45:52.956Z,95570.73
2018-02-16T12:48:20.415Z,95531.73
2018-02-16T12:50:47.876Z,95518.42
2018-02-16T12:53:15.841Z,95564.12
2018-02-16T12:55:44.839Z,95541.86
2018-02-16T12:58:12.359Z,95512.21
2018-02-16T13:00:40.011Z,95588.43
2018-02-16T13:03:07.467Z,95574.09
2018-02-16T13:05:35.266Z,95460.42
2018-02-16T13:08:02.803Z,95551.14
2018-02-16T13:10:30.195Z,95464.38
2018-02-16T13:12:59.468Z,95448.42
2018-02-16T13:15:28.227Z,95546.27
2018-02-16T13:17:56.221Z,95543.70
2018-02-16T13:20:25.334Z,95498.64
2018-02-16T13:22:54.380Z,95467.56
2018-02-16T13:25:22.260Z,95444.61
2018-02-16T13:27:50.055Z,95486.93
2018-02-16T13:30:17.557Z,95536.31
2018-02-16T13:32:45.309Z,95520.00
